Time;durP1;ratioP1;P1;durP2;ratioP2;P2;SDS_P1;SDS_P2;PMS_P1;PMS_P2;Temp;Humidity;BMP_temperature;BMP_pressure;BME280_temperature;BME280_humidity;BME280_pressure;Samples;Min_cycle;Max_cycle;Signal;HPM_P1;HPM_P2
2021/12/06 00:01:08;;;;;;;43.88;14.55;;;;;;;;;;10247354;28;20045;-64
2021/12/06 00:06:07;;;;;;;59.28;11.13;;;;;;;;;;10247025;28;20069;-63
2021/12/06 00:11:09;;;;;;;76.22;14.65;;;;;;;;;;10238328;28;20045;-63
2021/12/06 00:16:13;;;;;;;70.78;10.98;;;;;;;;;;10236842;28;20453;-63
2021/12/06 00:21:11;;;;;;;70.45;14.27;;;;;;;;;;10237835;28;20042;-63
2021/12/06 00:26:10;;;;;;;53.20;11.32;;;;;;;;;;10237671;28;20089;-63
2021/12/06 00:31:10;;;;;;;49.80;12.10;;;;;;;;;;10251249;28;20069;-63
2021/12/06 00:36:16;;;;;;;100.70;13.15;;;;;;;;;;10250761;28;20089;-63
2021/12/06 00:41:14;;;;;;;;;;;;;;;;;;10247044;28;20626;-62
2021/12/06 00:46:13;;;;;;;59.20;11.20;;;;;;;;;;10249593;28;19975;-63
2021/12/06 00:51:14;;;;;;;70.88;10.00;;;;;;;;;;10246921;28;20616;-63
2021/12/06 00:56:12;;;;;;;55.45;12.15;;;;;;;;;;10242685;28;20108;-63
2021/12/06 01:01:12;;;;;;;65.25;9.60;;;;;;;;;;10244993;28;20065;-63
2021/12/06 01:06:13;;;;;;;56.70;10.30;;;;;;;;;;10249856;28;20052;-63
2021/12/06 01:11:11;;;;;;;83.07;10.57;;;;;;;;;;10244480;28;20069;-62
2021/12/06 01:16:10;;;;;;;44.75;9.40;;;;;;;;;;10239693;28;20075;-62
2021/12/06 01:21:16;;;;;;;69.25;9.18;;;;;;;;;;10234877;28;20069;-62
2021/12/06 01:26:34;;;;;;;83.72;10.80;;;;;;;;;;10233330;28;20049;-63
2021/12/06 01:31:41;;;;;;;75.00;9.00;;;;;;;;;;10243044;28;20064;-63
2021/12/06 01:42:01;;;;;;;79.25;14.00;;;;;;;;;;10248181;28;20445;-62
2021/12/06 01:47:02;;;;;;;37.75;11.02;;;;;;;;;;10243741;28;20046;-62
2021/12/06 01:52:04;;;;;;;72.10;11.60;;;;;;;;;;10245348;28;20039;-63
2021/12/06 01:57:04;;;;;;;56.67;10.77;;;;;;;;;;10233030;28;20088;-63
2021/12/06 02:02:03;;;;;;;86.45;11.95;;;;;;;;;;10231746;28;20115;-63
2021/12/06 02:07:03;;;;;;;88.65;12.13;;;;;;;;;;10234353;28;20064;-63
2021/12/06 02:12:03;;;;;;;84.88;13.45;;;;;;;;;;10233122;28;20045;-62
2021/12/06 02:17:10;;;;;;;92.72;18.20;;;;;;;;;;10234449;28;20085;-62
2021/12/06 02:22:10;;;;;;;113.50;29.05;;;;;;;;;;10258785;28;20049;-63
2021/12/06 02:27:10;;;;;;;76.00;16.67;;;;;;;;;;10272461;28;20053;-63
2021/12/06 02:32:11;;;;;;;50.22;14.50;;;;;;;;;;10271510;28;20040;-63
2021/12/06 02:37:11;;;;;;;115.13;20.63;;;;;;;;;;10269487;28;20103;-63
2021/12/06 02:42:14;;;;;;;69.78;14.38;;;;;;;;;;10266848;28;20064;-63
2021/12/06 02:47:14;;;;;;;103.75;20.48;;;;;;;;;;10267945;28;20069;-63
2021/12/06 02:52:15;;;;;;;124.20;22.88;;;;;;;;;;10242931;28;20077;-63
2021/12/06 02:57:23;;;;;;;118.88;29.95;;;;;;;;;;10250245;28;20057;-63
2021/12/06 03:02:21;;;;;;;103.40;23.77;;;;;;;;;;10234879;28;20463;-63
2021/12/06 03:07:25;;;;;;;55.10;16.98;;;;;;;;;;10239965;28;20507;-62
2021/12/06 03:12:26;;;;;;;110.10;24.83;;;;;;;;;;10247002;28;20080;-63
2021/12/06 03:17:25;;;;;;;61.38;20.58;;;;;;;;;;10275663;28;20064;-63
2021/12/06 03:22:25;;;;;;;72.25;15.45;;;;;;;;;;10279023;28;20552;-62
2021/12/06 03:27:25;;;;;;;66.72;16.40;;;;;;;;;;10277616;28;20056;-62
2021/12/06 03:32:26;;;;;;;91.95;19.23;;;;;;;;;;10247422;28;20076;-61
2021/12/06 03:37:25;;;;;;;46.22;17.13;;;;;;;;;;10245595;28;20076;-64
2021/12/06 03:42:25;;;;;;;43.22;17.15;;;;;;;;;;10237563;28;20045;-64
2021/12/06 03:47:25;;;;;;;59.03;15.27;;;;;;;;;;10237350;28;20081;-64
2021/12/06 03:52:27;;;;;;;61.05;16.40;;;;;;;;;;10241480;28;20080;-62
2021/12/06 03:57:27;;;;;;;47.75;14.25;;;;;;;;;;10251729;28;20103;-63
2021/12/06 04:02:28;;;;;;;56.85;15.93;;;;;;;;;;10248841;28;20462;-63
2021/12/06 04:07:28;;;;;;;47.17;11.32;;;;;;;;;;10236584;28;20060;-64
2021/12/06 04:12:27;;;;;;;46.80;12.05;;;;;;;;;;10256757;28;20056;-63
2021/12/06 04:17:26;;;;;;;48.22;11.75;;;;;;;;;;10273381;28;20520;-63
2021/12/06 04:22:25;;;;;;;34.03;11.57;;;;;;;;;;10275229;28;20056;-63
2021/12/06 04:27:25;;;;;;;53.67;21.17;;;;;;;;;;10270884;28;20243;-64
2021/12/06 04:32:24;;;;;;;34.55;14.82;;;;;;;;;;10247933;28;20087;-63
2021/12/06 04:37:23;;;;;;;54.35;12.57;;;;;;;;;;10250495;28;20084;-63
2021/12/06 04:42:25;;;;;;;28.13;11.48;;;;;;;;;;10255900;28;20059;-63
2021/12/06 04:47:23;;;;;;;48.67;18.45;;;;;;;;;;10245864;28;20100;-63
2021/12/06 04:52:22;;;;;;;39.83;14.50;;;;;;;;;;10261480;28;20076;-63
2021/12/06 04:57:23;;;;;;;45.22;23.42;;;;;;;;;;10257583;28;20091;-64
2021/12/06 05:02:24;;;;;;;34.70;16.42;;;;;;;;;;10259922;28;20053;-63
2021/12/06 05:07:26;;;;;;;34.60;14.90;;;;;;;;;;10251575;28;20510;-64
2021/12/06 05:12:26;;;;;;;37.47;16.77;;;;;;;;;;10241270;28;20076;-63
2021/12/06 05:17:28;;;;;;;36.35;17.13;;;;;;;;;;10240894;28;20085;-63
2021/12/06 05:22:29;;;;;;;60.13;36.60;;;;;;;;;;10233742;28;20056;-63
2021/12/06 05:27:30;;;;;;;38.55;14.55;;;;;;;;;;10245685;28;20082;-63
2021/12/06 05:32:34;;;;;;;27.48;14.13;;;;;;;;;;10233360;28;20048;-63
2021/12/06 05:37:34;;;;;;;42.10;14.98;;;;;;;;;;10256220;28;20072;-63
2021/12/06 05:42:32;;;;;;;54.72;25.52;;;;;;;;;;10243700;28;20167;-63
2021/12/06 05:47:32;;;;;;;51.78;16.27;;;;;;;;;;10242271;28;20060;-63
2021/12/06 05:52:30;;;;;;;57.28;31.58;;;;;;;;;;10246084;28;20061;-63
2021/12/06 05:57:28;;;;;;;38.42;19.23;;;;;;;;;;10242057;28;20112;-63
2021/12/06 06:02:27;;;;;;;26.38;13.95;;;;;;;;;;10239391;28;20083;-63
2021/12/06 06:07:27;;;;;;;49.83;19.20;;;;;;;;;;10239784;28;20072;-63
2021/12/06 06:12:25;;;;;;;80.13;12.35;;;;;;;;;;10253136;28;20518;-64
2021/12/06 06:17:24;;;;;;;92.78;13.52;;;;;;;;;;10264250;28;20518;-63
2021/12/06 06:22:22;;;;;;;41.60;15.88;;;;;;;;;;10239939;28;20061;-63
2021/12/06 06:27:22;;;;;;;35.70;13.90;;;;;;;;;;10237252;28;20092;-64
2021/12/06 06:32:20;;;;;;;34.70;14.95;;;;;;;;;;10243838;28;20064;-63
2021/12/06 06:37:18;;;;;;;42.17;16.58;;;;;;;;;;10242434;28;20084;-64
2021/12/06 06:42:17;;;;;;;35.72;12.90;;;;;;;;;;10241714;28;20072;-64
2021/12/06 06:47:16;;;;;;;36.40;16.65;;;;;;;;;;10249429;28;20091;-64
2021/12/06 06:52:15;;;;;;;22.92;13.82;;;;;;;;;;10248309;28;20064;-64
2021/12/06 06:57:14;;;;;;;83.88;47.70;;;;;;;;;;10255096;28;20489;-63
2021/12/06 07:02:12;;;;;;;40.55;18.05;;;;;;;;;;10262254;28;20116;-63
2021/12/06 07:07:12;;;;;;;28.33;14.93;;;;;;;;;;10257444;28;20485;-62
2021/12/06 07:12:15;;;;;;;21.70;11.50;;;;;;;;;;10256905;28;20079;-62
2021/12/06 07:17:13;;;;;;;23.85;16.02;;;;;;;;;;10250076;28;20069;-63
2021/12/06 07:22:13;;;;;;;36.33;28.58;;;;;;;;;;10244855;28;20457;-63
2021/12/06 07:27:11;;;;;;;22.55;16.75;;;;;;;;;;10248293;28;20087;-63
2021/12/06 07:32:09;;;;;;;29.92;19.67;;;;;;;;;;10254722;28;20077;-62
2021/12/06 07:37:08;;;;;;;23.77;21.48;;;;;;;;;;10246730;28;20084;-62
2021/12/06 07:42:11;;;;;;;28.45;25.05;;;;;;;;;;10257802;28;20045;-61
2021/12/06 07:47:11;;;;;;;509.05;378.73;;;;;;;;;;10247436;28;20076;-62
2021/12/06 07:52:09;;;;;;;44.35;29.63;;;;;;;;;;10247929;28;20594;-62
2021/12/06 07:57:09;;;;;;;39.05;21.25;;;;;;;;;;10248531;28;20084;-62
2021/12/06 08:02:08;;;;;;;83.15;29.85;;;;;;;;;;10247384;28;20434;-63
2021/12/06 08:07:07;;;;;;;83.40;38.45;;;;;;;;;;10252910;28;20080;-63
2021/12/06 08:12:06;;;;;;;107.07;29.63;;;;;;;;;;10248787;28;20576;-63
2021/12/06 08:17:05;;;;;;;144.35;31.92;;;;;;;;;;10250361;28;20092;-63
2021/12/06 08:22:04;;;;;;;256.95;64.90;;;;;;;;;;10248895;28;20084;-64
2021/12/06 08:27:02;;;;;;;111.25;43.97;;;;;;;;;;10252457;28;20508;-63
2021/12/06 08:32:01;;;;;;;75.35;35.83;;;;;;;;;;10250350;28;20076;-63
2021/12/06 08:37:01;;;;;;;159.70;30.02;;;;;;;;;;10246208;28;20084;-62
2021/12/06 08:41:59;;;;;;;84.70;25.00;;;;;;;;;;10249736;28;20653;-63
2021/12/06 08:46:58;;;;;;;121.32;20.70;;;;;;;;;;10252618;28;20065;-63
2021/12/06 08:51:57;;;;;;;155.73;25.60;;;;;;;;;;10247520;28;20072;-62
2021/12/06 08:56:59;;;;;;;93.32;30.42;;;;;;;;;;10244126;28;20084;-64
2021/12/06 09:01:58;;;;;;;59.33;27.88;;;;;;;;;;10244819;28;20069;-62
2021/12/06 09:07:18;;;;;;;80.45;33.75;;;;;;;;;;10251733;28;20069;-62
2021/12/06 09:12:21;;;;;;;85.30;35.90;;;;;;;;;;10252864;28;20525;-61
2021/12/06 09:17:20;;;;;;;101.57;30.02;;;;;;;;;;10250269;28;20076;-62
2021/12/06 09:22:19;;;;;;;39.88;23.80;;;;;;;;;;10263846;28;20073;-63
2021/12/06 09:27:19;;;;;;;43.10;25.45;;;;;;;;;;10250631;28;20064;-63
2021/12/06 09:32:18;;;;;;;88.13;24.65;;;;;;;;;;10250677;28;20076;-62
2021/12/06 09:37:19;;;;;;;63.55;27.60;;;;;;;;;;10252365;28;20073;-62
2021/12/06 09:42:19;;;;;;;110.65;46.65;;;;;;;;;;10249272;28;20073;-63
2021/12/06 09:47:18;;;;;;;83.32;38.15;;;;;;;;;;10247513;28;20451;-63
2021/12/06 09:52:16;;;;;;;52.28;27.88;;;;;;;;;;10247929;28;20091;-64
2021/12/06 09:57:15;;;;;;;76.85;40.00;;;;;;;;;;10245879;28;20080;-63
2021/12/06 10:02:16;;;;;;;76.45;32.85;;;;;;;;;;10248482;28;20477;-63
2021/12/06 10:07:18;;;;;;;47.47;27.08;;;;;;;;;;10241582;28;20076;-62
2021/12/06 10:12:17;;;;;;;55.03;26.13;;;;;;;;;;10246758;28;20805;-64
2021/12/06 10:17:18;;;;;;;68.70;28.52;;;;;;;;;;10241348;28;20081;-63
2021/12/06 10:22:17;;;;;;;37.95;21.90;;;;;;;;;;10248271;28;20072;-63
2021/12/06 10:27:15;;;;;;;60.22;24.40;;;;;;;;;;10246169;28;20042;-63
2021/12/06 10:32:15;;;;;;;51.58;25.98;;;;;;;;;;10244843;28;20077;-63
2021/12/06 10:37:31;;;;;;;60.15;27.83;;;;;;;;;;10248183;28;20490;-62
2021/12/06 10:42:31;;;;;;;65.13;26.52;;;;;;;;;;10243904;28;20080;-64
2021/12/06 10:47:29;;;;;;;54.30;32.47;;;;;;;;;;10247862;28;20077;-64
2021/12/06 10:52:28;;;;;;;44.30;28.02;;;;;;;;;;10247628;28;20080;-64
2021/12/06 10:57:41;;;;;;;78.28;48.53;;;;;;;;;;10243719;28;20089;-64
2021/12/06 11:02:50;;;;;;;62.03;39.80;;;;;;;;;;10248452;28;20073;-64
2021/12/06 11:07:56;;;;;;;75.07;39.47;;;;;;;;;;10245980;28;20057;-63
2021/12/06 11:13:09;;;;;;;46.70;27.52;;;;;;;;;;10246244;28;20530;-64
2021/12/06 11:18:09;;;;;;;36.42;24.25;;;;;;;;;;10250567;28;20084;-63
2021/12/06 11:23:07;;;;;;;46.08;28.63;;;;;;;;;;10242638;28;20526;-64
2021/12/06 11:28:22;;;;;;;86.70;58.00;;;;;;;;;;10243866;28;20076;-63
2021/12/06 11:33:27;;;;;;;58.90;38.58;;;;;;;;;;10252004;28;20065;-64
2021/12/06 11:38:28;;;;;;;59.53;31.90;;;;;;;;;;10254798;28;20088;-62
2021/12/06 11:43:27;;;;;;;64.35;28.65;;;;;;;;;;10252515;28;20080;-64
2021/12/06 11:48:30;;;;;;;63.50;33.70;;;;;;;;;;10248597;28;20069;-65
2021/12/06 11:53:29;;;;;;;76.28;43.00;;;;;;;;;;10252504;28;20076;-63
2021/12/06 11:58:31;;;;;;;73.55;37.97;;;;;;;;;;10252944;28;20093;-63
2021/12/06 12:03:34;;;;;;;115.70;43.10;;;;;;;;;;10254509;28;20164;-63
2021/12/06 12:08:34;;;;;;;71.75;37.13;;;;;;;;;;10251008;28;20080;-62
2021/12/06 12:13:35;;;;;;;101.72;41.50;;;;;;;;;;10251006;28;20057;-63
2021/12/06 12:18:39;;;;;;;116.85;67.30;;;;;;;;;;10250929;28;20077;-62
2021/12/06 12:23:38;;;;;;;82.80;46.80;;;;;;;;;;10262217;28;20045;-63
2021/12/06 12:28:47;;;;;;;90.15;52.38;;;;;;;;;;10248778;28;20084;-63
2021/12/06 12:33:48;;;;;;;54.88;36.85;;;;;;;;;;10248550;28;20528;-63
2021/12/06 12:38:53;;;;;;;69.05;31.90;;;;;;;;;;10253199;28;20076;-63
2021/12/06 12:43:54;;;;;;;92.28;43.38;;;;;;;;;;10253794;28;20076;-63
2021/12/06 12:48:56;;;;;;;69.45;35.67;;;;;;;;;;10239449;28;20068;-63
2021/12/06 12:53:59;;;;;;;82.00;40.00;;;;;;;;;;10235368;28;20077;-63
2021/12/06 12:58:58;;;;;;;186.40;58.72;;;;;;;;;;10236833;28;20516;-66
2021/12/06 13:03:59;;;;;;;94.30;51.42;;;;;;;;;;10239987;28;20103;-66
2021/12/06 13:09:01;;;;;;;104.60;35.88;;;;;;;;;;10247854;28;20065;-66
2021/12/06 13:14:00;;;;;;;97.78;37.50;;;;;;;;;;10246347;28;20065;-65
2021/12/06 13:19:06;;;;;;;106.10;39.05;;;;;;;;;;10244430;28;20080;-66
2021/12/06 13:24:06;;;;;;;73.10;39.58;;;;;;;;;;10246102;28;20517;-65
2021/12/06 13:29:06;;;;;;;74.78;37.00;;;;;;;;;;10261488;28;20076;-65
2021/12/06 13:34:18;;;;;;;101.70;28.05;;;;;;;;;;10246102;28;20099;-65
2021/12/06 13:39:37;;;;;;;85.50;35.15;;;;;;;;;;10247186;28;20084;-64
2021/12/06 13:44:39;;;;;;;102.18;33.67;;;;;;;;;;10245896;28;20088;-65
2021/12/06 13:49:51;;;;;;;48.38;30.90;;;;;;;;;;10232904;28;20045;-66
2021/12/06 13:54:50;;;;;;;57.05;31.42;;;;;;;;;;10231868;28;20065;-66
2021/12/06 13:59:55;;;;;;;55.00;26.55;;;;;;;;;;10249455;28;20076;-64
2021/12/06 14:04:57;;;;;;;72.18;24.23;;;;;;;;;;10252523;28;20081;-66
2021/12/06 14:09:58;;;;;;;157.88;41.47;;;;;;;;;;10243719;28;20091;-65
2021/12/06 14:15:03;;;;;;;96.57;41.30;;;;;;;;;;10246171;28;20076;-65
2021/12/06 14:20:05;;;;;;;127.65;23.27;;;;;;;;;;10244501;28;20174;-59
2021/12/06 14:25:05;;;;;;;125.40;35.70;;;;;;;;;;10243422;28;20083;-59
2021/12/06 14:30:06;;;;;;;130.45;40.55;;;;;;;;;;10249300;28;20088;-59
2021/12/06 14:35:06;;;;;;;137.57;65.43;;;;;;;;;;10247321;28;20514;-58
2021/12/06 14:40:06;;;;;;;138.13;53.97;;;;;;;;;;10245299;28;20085;-59
2021/12/06 14:45:05;;;;;;;220.60;102.95;;;;;;;;;;10237279;28;20073;-59
2021/12/06 14:50:07;;;;;;;161.35;75.20;;;;;;;;;;10242367;28;20077;-59
2021/12/06 15:00:52;;;;;;;157.18;79.32;;;;;;;;;;10250474;28;20072;-60
2021/12/06 15:05:54;;;;;;;225.55;84.53;;;;;;;;;;10243461;28;20065;-59
2021/12/06 15:10:54;;;;;;;142.77;43.28;;;;;;;;;;10249213;28;20077;-59
2021/12/06 15:15:54;;;;;;;159.98;47.22;;;;;;;;;;10261689;28;20076;-59
2021/12/06 15:20:54;;;;;;;135.02;62.00;;;;;;;;;;10259746;28;20077;-61
2021/12/06 15:25:55;;;;;;;129.88;54.13;;;;;;;;;;10248371;28;20065;-60
2021/12/06 15:30:53;;;;;;;185.80;60.42;;;;;;;;;;10239785;28;20077;-60
2021/12/06 15:35:53;;;;;;;210.68;39.65;;;;;;;;;;10248695;28;20038;-60
2021/12/06 15:40:54;;;;;;;132.20;55.00;;;;;;;;;;10253238;28;20073;-59
2021/12/06 15:45:55;;;;;;;155.52;72.57;;;;;;;;;;10245309;28;20072;-60
2021/12/06 15:50:53;;;;;;;159.27;60.03;;;;;;;;;;10247247;28;20081;-60
2021/12/06 15:55:56;;;;;;;241.27;99.93;;;;;;;;;;10251834;28;20092;-60
2021/12/06 16:00:56;;;;;;;151.75;76.72;;;;;;;;;;10243960;28;20510;-61
2021/12/06 16:05:56;;;;;;;231.98;87.68;;;;;;;;;;10245750;28;20068;-60
2021/12/06 16:10:57;;;;;;;281.05;94.82;;;;;;;;;;10267312;28;20080;-59
2021/12/06 16:15:56;;;;;;;279.92;101.60;;;;;;;;;;10262115;28;20069;-59
2021/12/06 16:20:55;;;;;;;196.57;86.07;;;;;;;;;;10256381;28;20080;-59
2021/12/06 16:25:58;;;;;;;152.93;65.53;;;;;;;;;;10243783;28;20579;-59
2021/12/06 16:30:58;;;;;;;407.48;223.75;;;;;;;;;;10239684;28;20068;-60
2021/12/06 16:35:57;;;;;;;231.05;111.45;;;;;;;;;;10251311;28;20517;-59
2021/12/06 16:40:57;;;;;;;112.78;45.30;;;;;;;;;;10245035;28;20077;-60
2021/12/06 16:46:08;;;;;;;150.93;55.10;;;;;;;;;;10249701;28;20081;-59
2021/12/06 16:51:06;;;;;;;244.02;103.15;;;;;;;;;;10247658;28;20068;-58
2021/12/06 16:56:07;;;;;;;124.97;54.35;;;;;;;;;;10251624;28;20483;-57
2021/12/06 17:01:06;;;;;;;197.43;93.97;;;;;;;;;;10250897;28;20080;-59
2021/12/06 17:06:07;;;;;;;116.35;49.67;;;;;;;;;;10248823;28;20065;-59
2021/12/06 17:11:08;;;;;;;64.70;36.28;;;;;;;;;;10246300;28;20056;-58
2021/12/06 17:16:08;;;;;;;116.35;48.15;;;;;;;;;;10248256;28;20946;-58
2021/12/06 17:21:08;;;;;;;124.47;57.80;;;;;;;;;;10248763;28;20083;-59
2021/12/06 17:26:11;;;;;;;109.13;50.95;;;;;;;;;;10247237;28;20085;-59
2021/12/06 17:31:10;;;;;;;87.10;31.25;;;;;;;;;;10238553;28;20063;-59
2021/12/06 17:36:08;;;;;;;98.50;30.30;;;;;;;;;;10239016;28;20497;-60
2021/12/06 17:41:08;;;;;;;62.28;32.17;;;;;;;;;;10239485;28;20463;-60
2021/12/06 17:46:07;;;;;;;73.55;48.53;;;;;;;;;;10247853;28;20065;-59
2021/12/06 17:51:25;;;;;;;108.25;48.42;;;;;;;;;;10249134;28;20061;-59
2021/12/06 17:56:26;;;;;;;76.45;46.60;;;;;;;;;;10242951;28;20083;-60
2021/12/06 18:01:28;;;;;;;66.25;29.25;;;;;;;;;;10238219;28;20502;-59
2021/12/06 18:06:35;;;;;;;105.55;45.20;;;;;;;;;;10250273;28;20136;-59
2021/12/06 18:11:37;;;;;;;133.23;52.08;;;;;;;;;;10241167;28;20076;-59
2021/12/06 18:16:38;;;;;;;68.37;39.53;;;;;;;;;;10236851;28;20069;-59
2021/12/06 18:21:37;;;;;;;138.68;56.72;;;;;;;;;;10269806;28;20081;-60
2021/12/06 18:26:38;;;;;;;78.10;35.50;;;;;;;;;;10259163;28;20115;-58
2021/12/06 18:31:40;;;;;;;112.57;39.03;;;;;;;;;;10242729;28;20069;-59
2021/12/06 18:36:42;;;;;;;102.72;38.55;;;;;;;;;;10240128;28;20191;-59
2021/12/06 18:41:42;;;;;;;140.88;46.38;;;;;;;;;;10234813;28;20384;-59
2021/12/06 18:46:44;;;;;;;235.23;61.83;;;;;;;;;;10240896;28;20478;-59
2021/12/06 18:51:43;;;;;;;110.65;30.85;;;;;;;;;;10253279;28;20076;-59
2021/12/06 18:56:43;;;;;;;54.65;27.90;;;;;;;;;;10252327;28;20507;-59
2021/12/06 19:01:41;;;;;;;110.07;54.40;;;;;;;;;;10256852;28;20115;-59
2021/12/06 19:06:41;;;;;;;130.52;50.22;;;;;;;;;;10245347;28;20080;-60
2021/12/06 19:11:43;;;;;;;281.48;83.00;;;;;;;;;;10255347;28;20081;-59
2021/12/06 19:17:01;;;;;;;195.18;49.63;;;;;;;;;;10250114;28;20503;-60
2021/12/06 19:22:00;;;;;;;453.13;58.33;;;;;;;;;;10250735;28;20472;-58
2021/12/06 19:26:59;;;;;;;541.55;61.20;;;;;;;;;;10252825;28;20448;-59
2021/12/06 19:31:58;;;;;;;161.90;36.78;;;;;;;;;;10253417;28;20065;-60
2021/12/06 19:36:57;;;;;;;144.10;44.80;;;;;;;;;;10250977;28;20079;-60
2021/12/06 19:41:55;;;;;;;109.85;38.17;;;;;;;;;;10252887;28;20100;-58
2021/12/06 19:46:55;;;;;;;141.60;56.38;;;;;;;;;;10248966;28;20068;-59
2021/12/06 19:51:54;;;;;;;357.73;88.15;;;;;;;;;;10253477;28;20061;-58
2021/12/06 19:56:52;;;;;;;350.88;81.15;;;;;;;;;;10247360;28;20076;-57
2021/12/06 20:01:50;;;;;;;132.98;39.05;;;;;;;;;;10250256;28;20462;-60
2021/12/06 20:06:50;;;;;;;299.98;50.92;;;;;;;;;;10251602;28;20083;-59
2021/12/06 20:11:49;;;;;;;264.63;51.67;;;;;;;;;;10246913;28;20065;-60
2021/12/06 20:16:47;;;;;;;336.75;38.10;;;;;;;;;;10246209;28;20076;-59
2021/12/06 20:21:46;;;;;;;96.95;32.03;;;;;;;;;;10251139;28;20535;-60
2021/12/06 20:26:46;;;;;;;156.60;37.28;;;;;;;;;;10247320;28;20037;-59
2021/12/06 20:31:44;;;;;;;233.40;38.90;;;;;;;;;;10246795;28;20065;-56
2021/12/06 20:36:42;;;;;;;128.85;33.20;;;;;;;;;;10247628;28;20518;-60
2021/12/06 20:41:41;;;;;;;199.00;36.90;;;;;;;;;;10242407;28;20073;-58
2021/12/06 20:46:40;;;;;;;147.35;47.35;;;;;;;;;;10246697;28;20068;-59
2021/12/06 20:51:39;;;;;;;176.57;57.42;;;;;;;;;;10248691;28;20072;-60
2021/12/06 20:56:38;;;;;;;224.65;39.90;;;;;;;;;;10243804;28;20079;-59
2021/12/06 21:01:36;;;;;;;461.58;64.60;;;;;;;;;;10248775;28;20081;-60
2021/12/06 21:06:37;;;;;;;202.95;38.33;;;;;;;;;;10263137;28;20475;-58
2021/12/06 21:11:40;;;;;;;91.57;33.53;;;;;;;;;;10255979;28;20073;-59
2021/12/06 21:16:40;;;;;;;224.55;45.47;;;;;;;;;;10250251;28;20061;-59
2021/12/06 21:21:42;;;;;;;221.57;36.20;;;;;;;;;;10240753;28;20503;-59
2021/12/06 21:26:40;;;;;;;117.15;40.30;;;;;;;;;;10244496;28;20080;-60
2021/12/06 21:31:39;;;;;;;249.00;43.25;;;;;;;;;;10242114;28;20073;-60
2021/12/06 21:36:38;;;;;;;238.60;46.75;;;;;;;;;;10249216;28;20073;-60
2021/12/06 21:41:38;;;;;;;197.80;36.45;;;;;;;;;;10242655;28;20088;-60
2021/12/06 21:46:36;;;;;;;278.45;44.67;;;;;;;;;;10243298;28;20164;-60
2021/12/06 21:51:35;;;;;;;198.05;41.85;;;;;;;;;;10241679;28;20080;-60
2021/12/06 21:56:33;;;;;;;129.20;37.15;;;;;;;;;;10243437;28;20088;-58
2021/12/06 22:01:33;;;;;;;173.30;37.22;;;;;;;;;;10242939;28;20057;-60
2021/12/06 22:06:32;;;;;;;312.27;47.70;;;;;;;;;;10242169;28;20076;-60
2021/12/06 22:11:35;;;;;;;252.15;42.35;;;;;;;;;;10241953;28;20536;-60
2021/12/06 22:16:36;;;;;;;106.05;33.33;;;;;;;;;;10244926;28;20065;-60
2021/12/06 22:21:34;;;;;;;182.40;38.63;;;;;;;;;;10247494;28;20080;-60
2021/12/06 22:26:32;;;;;;;83.55;27.77;;;;;;;;;;10242930;28;20073;-60
2021/12/06 22:31:31;;;;;;;247.80;41.30;;;;;;;;;;10241466;28;20064;-60
2021/12/06 22:36:31;;;;;;;227.50;35.25;;;;;;;;;;10241318;28;20068;-60
2021/12/06 22:41:29;;;;;;;386.88;43.63;;;;;;;;;;10239733;28;20077;-61
2021/12/06 22:46:28;;;;;;;68.40;23.95;;;;;;;;;;10240673;28;20077;-60
2021/12/06 22:51:26;;;;;;;168.75;37.47;;;;;;;;;;10242981;28;20344;-61
2021/12/06 22:56:26;;;;;;;58.30;24.65;;;;;;;;;;10248295;28;20049;-60
2021/12/06 23:01:26;;;;;;;146.05;31.92;;;;;;;;;;10241630;28;20040;-60
2021/12/06 23:06:24;;;;;;;135.23;27.92;;;;;;;;;;10243154;28;20065;-60
2021/12/06 23:11:23;;;;;;;155.30;36.22;;;;;;;;;;10239340;28;20069;-60
2021/12/06 23:16:23;;;;;;;107.88;33.78;;;;;;;;;;10241141;28;20065;-59
2021/12/06 23:21:22;;;;;;;73.65;30.48;;;;;;;;;;10240791;28;20164;-59
2021/12/06 23:26:21;;;;;;;147.80;38.72;;;;;;;;;;10245498;28;20076;-60
2021/12/06 23:31:19;;;;;;;84.35;36.63;;;;;;;;;;10248733;28;20075;-59
2021/12/06 23:36:23;;;;;;;55.50;30.05;;;;;;;;;;10250386;28;20072;-59
2021/12/06 23:41:28;;;;;;;73.03;32.10;;;;;;;;;;10247392;28;20061;-59
2021/12/06 23:46:30;;;;;;;120.10;29.75;;;;;;;;;;10245243;28;20069;-59
2021/12/06 23:51:30;;;;;;;59.00;27.40;;;;;;;;;;10247200;28;20502;-59
2021/12/06 23:56:29;;;;;;;98.93;29.05;;;;;;;;;;10247049;28;20080;-59
